sensor_id;sensor_type;location;lat;lon;timestamp;pressure;altitude;pressure_sealevel;temperature;humidity
19112;BME280;9688;51.906;8.376;2023-09-19T00:00:22;99837.16;;;16.93;100.00
19112;BME280;9688;51.906;8.376;2023-09-19T00:03:13;99844.09;;;16.95;100.00
19112;BME280;9688;51.906;8.376;2023-09-19T00:05:59;99854.53;;;16.99;100.00
19112;BME280;9688;51.906;8.376;2023-09-19T00:08:46;99848.25;;;17.00;100.00
19112;BME280;9688;51.906;8.376;2023-09-19T00:11:31;99851.50;;;17.03;100.00
19112;BME280;9688;51.906;8.376;2023-09-19T00:14:18;99855.66;;;17.07;100.00
19112;BME280;9688;51.906;8.376;2023-09-19T00:17:04;99855.53;;;17.09;100.00
19112;BME280;9688;51.906;8.376;2023-09-19T00:19:54;99858.81;;;17.12;100.00
19112;BME280;9688;51.906;8.376;2023-09-19T00:22:40;99858.69;;;17.14;100.00
19112;BME280;9688;51.906;8.376;2023-09-19T00:25:27;99870.13;;;17.16;100.00
19112;BME280;9688;51.906;8.376;2023-09-19T00:28:13;99867.19;;;17.19;100.00
19112;BME280;9688;51.906;8.376;2023-09-19T00:30:59;99874.38;;;17.19;100.00
19112;BME280;9688;51.906;8.376;2023-09-19T00:33:46;99870.97;;;17.16;100.00
19112;BME280;9688;51.906;8.376;2023-09-19T00:36:35;99874.47;;;17.17;100.00
19112;BME280;9688;51.906;8.376;2023-09-19T00:39:22;99872.06;;;17.14;100.00
19112;BME280;9688;51.906;8.376;2023-09-19T00:42:18;99875.69;;;17.13;100.00
19112;BME280;9688;51.906;8.376;2023-09-19T00:45:06;99873.97;;;17.12;100.00
19112;BME280;9688;51.906;8.376;2023-09-19T00:47:53;99883.97;;;17.10;100.00
19112;BME280;9688;51.906;8.376;2023-09-19T00:50:41;99882.97;;;17.11;100.00
19112;BME280;9688;51.906;8.376;2023-09-19T00:53:31;99886.38;;;17.13;100.00
19112;BME280;9688;51.906;8.376;2023-09-19T00:56:18;99888.06;;;17.14;100.00
19112;BME280;9688;51.906;8.376;2023-09-19T00:59:05;99896.09;;;17.14;100.00
19112;BME280;9688;51.906;8.376;2023-09-19T01:01:51;99898.88;;;17.12;100.00
19112;BME280;9688;51.906;8.376;2023-09-19T01:04:38;99899.84;;;17.11;100.00
19112;BME280;9688;51.906;8.376;2023-09-19T01:07:24;99901.66;;;17.11;100.00
19112;BME280;9688;51.906;8.376;2023-09-19T01:10:13;99902.66;;;17.10;100.00
19112;BME280;9688;51.906;8.376;2023-09-19T01:13:05;99904.44;;;17.09;100.00
19112;BME280;9688;51.906;8.376;2023-09-19T01:16:04;99901.53;;;17.12;100.00
19112;BME280;9688;51.906;8.376;2023-09-19T01:18:58;99904.84;;;17.16;100.00
19112;BME280;9688;51.906;8.376;2023-09-19T01:21:54;99916.13;;;17.20;100.00
19112;BME280;9688;51.906;8.376;2023-09-19T01:25:07;99921.38;;;17.21;100.00
19112;BME280;9688;51.906;8.376;2023-09-19T01:28:20;99918.44;;;17.24;100.00
19112;BME280;9688;51.906;8.376;2023-09-19T01:31:10;99910.06;;;17.29;100.00
19112;BME280;9688;51.906;8.376;2023-09-19T01:33:58;99915.91;;;17.34;100.00
19112;BME280;9688;51.906;8.376;2023-09-19T01:36:44;99923.81;;;17.35;100.00
19112;BME280;9688;51.906;8.376;2023-09-19T01:39:31;99932.44;;;17.39;100.00
19112;BME280;9688;51.906;8.376;2023-09-19T01:42:24;99925.00;;;17.43;100.00
19112;BME280;9688;51.906;8.376;2023-09-19T01:45:12;99928.44;;;17.45;100.00
19112;BME280;9688;51.906;8.376;2023-09-19T01:48:10;99927.59;;;17.44;100.00
19112;BME280;9688;51.906;8.376;2023-09-19T01:51:01;99929.16;;;17.47;100.00
19112;BME280;9688;51.906;8.376;2023-09-19T01:53:53;99942.38;;;17.48;100.00
19112;BME280;9688;51.906;8.376;2023-09-19T01:56:48;99944.97;;;17.50;100.00
19112;BME280;9688;51.906;8.376;2023-09-19T01:59:40;99947.72;;;17.48;100.00
19112;BME280;9688;51.906;8.376;2023-09-19T02:02:28;99953.09;;;17.48;100.00
19112;BME280;9688;51.906;8.376;2023-09-19T02:05:23;99950.66;;;17.45;100.00
19112;BME280;9688;51.906;8.376;2023-09-19T02:08:09;99956.13;;;17.44;100.00
19112;BME280;9688;51.906;8.376;2023-09-19T02:10:55;99955.50;;;17.40;100.00
19112;BME280;9688;51.906;8.376;2023-09-19T02:13:41;99962.06;;;17.36;100.00
19112;BME280;9688;51.906;8.376;2023-09-19T02:16:26;99967.50;;;17.34;100.00
19112;BME280;9688;51.906;8.376;2023-09-19T02:19:13;99975.91;;;17.30;100.00
19112;BME280;9688;51.906;8.376;2023-09-19T02:22:00;99974.56;;;17.24;100.00
19112;BME280;9688;51.906;8.376;2023-09-19T02:24:47;99975.50;;;17.23;100.00
19112;BME280;9688;51.906;8.376;2023-09-19T02:27:33;99975.41;;;17.25;100.00
19112;BME280;9688;51.906;8.376;2023-09-19T02:30:20;99978.91;;;17.25;100.00
19112;BME280;9688;51.906;8.376;2023-09-19T02:33:10;99984.50;;;17.22;100.00
19112;BME280;9688;51.906;8.376;2023-09-19T02:35:57;99975.75;;;17.20;100.00
19112;BME280;9688;51.906;8.376;2023-09-19T02:38:44;99974.38;;;17.14;100.00
19112;BME280;9688;51.906;8.376;2023-09-19T02:41:30;99974.88;;;17.08;100.00
19112;BME280;9688;51.906;8.376;2023-09-19T02:44:17;99974.59;;;17.00;100.00
19112;BME280;9688;51.906;8.376;2023-09-19T02:47:04;99981.59;;;16.90;100.00
19112;BME280;9688;51.906;8.376;2023-09-19T02:49:50;99980.34;;;16.83;100.00
19112;BME280;9688;51.906;8.376;2023-09-19T02:52:36;99985.06;;;16.79;100.00
19112;BME280;9688;51.906;8.376;2023-09-19T02:55:23;99984.19;;;16.79;100.00
19112;BME280;9688;51.906;8.376;2023-09-19T02:58:09;99983.34;;;16.78;100.00
19112;BME280;9688;51.906;8.376;2023-09-19T03:00:56;99991.56;;;16.75;100.00
19112;BME280;9688;51.906;8.376;2023-09-19T03:03:42;99987.53;;;16.69;100.00
19112;BME280;9688;51.906;8.376;2023-09-19T03:06:27;99992.34;;;16.64;100.00
19112;BME280;9688;51.906;8.376;2023-09-19T03:09:15;99994.50;;;16.59;100.00
19112;BME280;9688;51.906;8.376;2023-09-19T03:12:03;100005.63;;;16.53;100.00
19112;BME280;9688;51.906;8.376;2023-09-19T03:14:51;100003.06;;;16.51;100.00
19112;BME280;9688;51.906;8.376;2023-09-19T03:17:37;100016.94;;;16.57;100.00
19112;BME280;9688;51.906;8.376;2023-09-19T03:20:22;100006.91;;;16.60;100.00
19112;BME280;9688;51.906;8.376;2023-09-19T03:23:09;100016.50;;;16.63;100.00
19112;BME280;9688;51.906;8.376;2023-09-19T03:25:54;100024.72;;;16.60;100.00
19112;BME280;9688;51.906;8.376;2023-09-19T03:28:42;100017.06;;;16.55;100.00
19112;BME280;9688;51.906;8.376;2023-09-19T03:31:30;100022.63;;;16.52;100.00
19112;BME280;9688;51.906;8.376;2023-09-19T03:34:16;100027.31;;;16.48;100.00
19112;BME280;9688;51.906;8.376;2023-09-19T03:37:03;100016.47;;;16.39;100.00
19112;BME280;9688;51.906;8.376;2023-09-19T03:39:50;100017.75;;;16.33;100.00
19112;BME280;9688;51.906;8.376;2023-09-19T03:42:38;100015.41;;;16.28;100.00
19112;BME280;9688;51.906;8.376;2023-09-19T03:45:25;100003.59;;;16.20;100.00
19112;BME280;9688;51.906;8.376;2023-09-19T03:48:12;100014.59;;;16.15;100.00
19112;BME280;9688;51.906;8.376;2023-09-19T03:50:58;100013.22;;;16.10;100.00
19112;BME280;9688;51.906;8.376;2023-09-19T03:53:44;100016.84;;;16.09;100.00
19112;BME280;9688;51.906;8.376;2023-09-19T03:56:30;100007.25;;;16.06;100.00
19112;BME280;9688;51.906;8.376;2023-09-19T03:59:16;100008.31;;;16.03;100.00
19112;BME280;9688;51.906;8.376;2023-09-19T04:02:04;100009.16;;;16.04;100.00
19112;BME280;9688;51.906;8.376;2023-09-19T04:04:56;100020.91;;;16.01;100.00
19112;BME280;9688;51.906;8.376;2023-09-19T04:07:41;100014.94;;;15.98;100.00
19112;BME280;9688;51.906;8.376;2023-09-19T04:10:28;100009.72;;;15.96;100.00
19112;BME280;9688;51.906;8.376;2023-09-19T04:13:13;100021.56;;;15.92;100.00
19112;BME280;9688;51.906;8.376;2023-09-19T04:16:00;100012.19;;;15.87;100.00
19112;BME280;9688;51.906;8.376;2023-09-19T04:18:47;100016.97;;;15.81;100.00
19112;BME280;9688;51.906;8.376;2023-09-19T04:21:33;100022.75;;;15.75;100.00
19112;BME280;9688;51.906;8.376;2023-09-19T04:24:19;100013.28;;;15.71;100.00
19112;BME280;9688;51.906;8.376;2023-09-19T04:27:05;100019.72;;;15.67;100.00
19112;BME280;9688;51.906;8.376;2023-09-19T04:29:51;100023.44;;;15.65;100.00
19112;BME280;9688;51.906;8.376;2023-09-19T04:32:38;100031.66;;;15.61;100.00
19112;BME280;9688;51.906;8.376;2023-09-19T04:35:27;100035.50;;;15.57;100.00
19112;BME280;9688;51.906;8.376;2023-09-19T04:38:16;100036.44;;;15.56;100.00
19112;BME280;9688;51.906;8.376;2023-09-19T04:41:02;100049.00;;;15.54;100.00
19112;BME280;9688;51.906;8.376;2023-09-19T04:43:48;100042.09;;;15.52;100.00
19112;BME280;9688;51.906;8.376;2023-09-19T04:46:35;100039.63;;;15.49;100.00
19112;BME280;9688;51.906;8.376;2023-09-19T04:49:20;100046.91;;;15.47;100.00
19112;BME280;9688;51.906;8.376;2023-09-19T04:52:08;100050.72;;;15.43;100.00
19112;BME280;9688;51.906;8.376;2023-09-19T04:54:54;100057.94;;;15.40;100.00
19112;BME280;9688;51.906;8.376;2023-09-19T04:57:39;100054.56;;;15.38;100.00
19112;BME280;9688;51.906;8.376;2023-09-19T05:00:25;100066.13;;;15.37;100.00
19112;BME280;9688;51.906;8.376;2023-09-19T05:03:15;100060.81;;;15.37;100.00
19112;BME280;9688;51.906;8.376;2023-09-19T05:06:01;100073.28;;;15.37;100.00
19112;BME280;9688;51.906;8.376;2023-09-19T05:08:50;100073.28;;;15.37;100.00
19112;BME280;9688;51.906;8.376;2023-09-19T05:11:37;100079.59;;;15.36;100.00
19112;BME280;9688;51.906;8.376;2023-09-19T05:14:23;100082.25;;;15.36;100.00
19112;BME280;9688;51.906;8.376;2023-09-19T05:17:10;100079.66;;;15.34;100.00
19112;BME280;9688;51.906;8.376;2023-09-19T05:19:55;100076.16;;;15.34;100.00
19112;BME280;9688;51.906;8.376;2023-09-19T05:22:42;100079.78;;;15.33;100.00
19112;BME280;9688;51.906;8.376;2023-09-19T05:25:31;100081.69;;;15.31;100.00
19112;BME280;9688;51.906;8.376;2023-09-19T05:28:17;100082.66;;;15.30;100.00
19112;BME280;9688;51.906;8.376;2023-09-19T05:31:03;100100.53;;;15.28;100.00
19112;BME280;9688;51.906;8.376;2023-09-19T05:33:49;100111.19;;;15.28;100.00
19112;BME280;9688;51.906;8.376;2023-09-19T05:36:35;100121.09;;;15.26;100.00
19112;BME280;9688;51.906;8.376;2023-09-19T05:39:21;100124.59;;;15.26;100.00
19112;BME280;9688;51.906;8.376;2023-09-19T05:42:11;100129.84;;;15.28;100.00
19112;BME280;9688;51.906;8.376;2023-09-19T05:44:58;100135.91;;;15.30;100.00
19112;BME280;9688;51.906;8.376;2023-09-19T05:47:44;100126.84;;;15.32;100.00
19112;BME280;9688;51.906;8.376;2023-09-19T05:50:31;100136.34;;;15.36;100.00
19112;BME280;9688;51.906;8.376;2023-09-19T05:53:18;100140.00;;;15.48;100.00
19112;BME280;9688;51.906;8.376;2023-09-19T05:56:04;100139.28;;;15.59;100.00
19112;BME280;9688;51.906;8.376;2023-09-19T05:58:51;100146.16;;;15.63;100.00
19112;BME280;9688;51.906;8.376;2023-09-19T06:01:38;100148.59;;;15.66;100.00
19112;BME280;9688;51.906;8.376;2023-09-19T06:04:24;100151.09;;;15.69;100.00
19112;BME280;9688;51.906;8.376;2023-09-19T06:07:15;100144.03;;;15.68;100.00
19112;BME280;9688;51.906;8.376;2023-09-19T06:10:01;100139.59;;;15.69;100.00
19112;BME280;9688;51.906;8.376;2023-09-19T06:12:47;100152.78;;;15.70;100.00
19112;BME280;9688;51.906;8.376;2023-09-19T06:15:34;100140.22;;;15.72;100.00
19112;BME280;9688;51.906;8.376;2023-09-19T06:18:20;100138.09;;;15.77;100.00
19112;BME280;9688;51.906;8.376;2023-09-19T06:21:10;100135.84;;;15.84;100.00
19112;BME280;9688;51.906;8.376;2023-09-19T06:23:56;100130.97;;;15.91;100.00
19112;BME280;9688;51.906;8.376;2023-09-19T06:26:42;100134.06;;;15.97;100.00
19112;BME280;9688;51.906;8.376;2023-09-19T06:29:29;100140.78;;;16.03;100.00
19112;BME280;9688;51.906;8.376;2023-09-19T06:32:16;100138.44;;;16.11;100.00
19112;BME280;9688;51.906;8.376;2023-09-19T06:35:03;100139.53;;;16.21;100.00
19112;BME280;9688;51.906;8.376;2023-09-19T06:37:51;100145.28;;;16.28;100.00
19112;BME280;9688;51.906;8.376;2023-09-19T06:40:37;100142.28;;;16.33;100.00
19112;BME280;9688;51.906;8.376;2023-09-19T06:43:26;100134.91;;;16.36;100.00
19112;BME280;9688;51.906;8.376;2023-09-19T06:46:13;100160.53;;;16.39;100.00
19112;BME280;9688;51.906;8.376;2023-09-19T06:49:02;100156.03;;;16.39;100.00
19112;BME280;9688;51.906;8.376;2023-09-19T06:51:54;100155.72;;;16.44;99.97
19112;BME280;9688;51.906;8.376;2023-09-19T06:54:42;100147.72;;;16.44;99.52
19112;BME280;9688;51.906;8.376;2023-09-19T06:57:28;100149.81;;;16.51;99.53
19112;BME280;9688;51.906;8.376;2023-09-19T07:00:16;100149.72;;;16.53;99.77
19112;BME280;9688;51.906;8.376;2023-09-19T07:03:04;100148.56;;;16.57;99.52
19112;BME280;9688;51.906;8.376;2023-09-19T07:05:56;100149.28;;;16.59;99.19
19112;BME280;9688;51.906;8.376;2023-09-19T07:08:43;100155.59;;;16.58;99.25
19112;BME280;9688;51.906;8.376;2023-09-19T07:11:29;100153.03;;;16.57;99.66
19112;BME280;9688;51.906;8.376;2023-09-19T07:14:16;100163.69;;;16.57;99.93
19112;BME280;9688;51.906;8.376;2023-09-19T07:17:02;100177.25;;;16.54;100.00
19112;BME280;9688;51.906;8.376;2023-09-19T07:19:49;100174.72;;;16.52;100.00
19112;BME280;9688;51.906;8.376;2023-09-19T07:22:36;100181.97;;;16.50;100.00
19112;BME280;9688;51.906;8.376;2023-09-19T07:25:26;100184.34;;;16.55;99.63
19112;BME280;9688;51.906;8.376;2023-09-19T07:28:15;100183.66;;;16.64;99.55
19112;BME280;9688;51.906;8.376;2023-09-19T07:31:02;100189.19;;;16.73;99.31
19112;BME280;9688;51.906;8.376;2023-09-19T07:33:49;100196.59;;;16.83;99.56
19112;BME280;9688;51.906;8.376;2023-09-19T07:36:35;100194.25;;;16.91;99.18
19112;BME280;9688;51.906;8.376;2023-09-19T07:39:27;100186.94;;;16.93;98.92
19112;BME280;9688;51.906;8.376;2023-09-19T07:42:13;100190.59;;;16.92;99.15
19112;BME280;9688;51.906;8.376;2023-09-19T07:45:02;100188.78;;;16.92;98.59
19112;BME280;9688;51.906;8.376;2023-09-19T07:47:50;100183.22;;;16.95;98.72
19112;BME280;9688;51.906;8.376;2023-09-19T07:50:36;100198.69;;;17.03;98.62
19112;BME280;9688;51.906;8.376;2023-09-19T07:53:22;100191.72;;;17.13;98.01
19112;BME280;9688;51.906;8.376;2023-09-19T07:56:10;100189.22;;;17.23;97.47
19112;BME280;9688;51.906;8.376;2023-09-19T07:58:58;100192.31;;;17.30;97.27
19112;BME280;9688;51.906;8.376;2023-09-19T08:01:44;100188.34;;;17.35;97.00
19112;BME280;9688;51.906;8.376;2023-09-19T08:04:31;100191.91;;;17.47;96.66
19112;BME280;9688;51.906;8.376;2023-09-19T08:07:18;100192.81;;;17.59;96.56
19112;BME280;9688;51.906;8.376;2023-09-19T08:10:06;100196.75;;;17.66;95.75
19112;BME280;9688;51.906;8.376;2023-09-19T08:13:00;100195.94;;;17.77;95.69
19112;BME280;9688;51.906;8.376;2023-09-19T08:15:46;100190.16;;;17.83;95.01
19112;BME280;9688;51.906;8.376;2023-09-19T08:18:33;100192.34;;;17.89;94.98
19112;BME280;9688;51.906;8.376;2023-09-19T08:21:21;100193.72;;;17.95;94.03
19112;BME280;9688;51.906;8.376;2023-09-19T08:24:10;100193.72;;;17.95;94.39
19112;BME280;9688;51.906;8.376;2023-09-19T08:26:57;100203.50;;;18.07;93.71
19112;BME280;9688;51.906;8.376;2023-09-19T08:29:45;100203.97;;;18.12;93.67
19112;BME280;9688;51.906;8.376;2023-09-19T08:32:31;100202.88;;;18.15;93.26
19112;BME280;9688;51.906;8.376;2023-09-19T08:35:19;100211.91;;;18.25;92.41
19112;BME280;9688;51.906;8.376;2023-09-19T08:38:05;100214.00;;;18.33;92.44
19112;BME280;9688;51.906;8.376;2023-09-19T08:40:51;100224.13;;;18.40;92.07
19112;BME280;9688;51.906;8.376;2023-09-19T08:43:38;100220.22;;;18.44;91.63
19112;BME280;9688;51.906;8.376;2023-09-19T08:46:26;100225.72;;;18.54;91.32
19112;BME280;9688;51.906;8.376;2023-09-19T08:49:21;100228.53;;;18.64;91.38
19112;BME280;9688;51.906;8.376;2023-09-19T08:52:20;100217.47;;;18.68;90.76
19112;BME280;9688;51.906;8.376;2023-09-19T08:55:07;100214.78;;;18.68;90.71
19112;BME280;9688;51.906;8.376;2023-09-19T08:58:00;100215.38;;;18.72;90.27
19112;BME280;9688;51.906;8.376;2023-09-19T09:00:48;100216.91;;;18.76;90.15
19112;BME280;9688;51.906;8.376;2023-09-19T09:03:36;100222.00;;;18.90;89.47
19112;BME280;9688;51.906;8.376;2023-09-19T09:06:25;100220.66;;;19.07;89.17
19112;BME280;9688;51.906;8.376;2023-09-19T09:09:12;100221.72;;;19.16;88.58
19112;BME280;9688;51.906;8.376;2023-09-19T09:11:59;100226.59;;;19.11;88.63
19112;BME280;9688;51.906;8.376;2023-09-19T09:14:47;100226.50;;;19.12;88.47
19112;BME280;9688;51.906;8.376;2023-09-19T09:17:33;100227.81;;;19.18;88.51
19112;BME280;9688;51.906;8.376;2023-09-19T09:20:26;100221.59;;;19.17;87.87
19112;BME280;9688;51.906;8.376;2023-09-19T09:23:13;100235.72;;;19.20;88.17
19112;BME280;9688;51.906;8.376;2023-09-19T09:25:59;100211.13;;;19.14;88.13
19112;BME280;9688;51.906;8.376;2023-09-19T09:28:47;100216.97;;;19.20;87.59
19112;BME280;9688;51.906;8.376;2023-09-19T09:31:34;100215.75;;;19.24;87.61
19112;BME280;9688;51.906;8.376;2023-09-19T09:34:21;100219.03;;;19.27;87.26
19112;BME280;9688;51.906;8.376;2023-09-19T09:37:13;100215.97;;;19.32;86.49
19112;BME280;9688;51.906;8.376;2023-09-19T09:40:03;100219.00;;;19.38;86.72
19112;BME280;9688;51.906;8.376;2023-09-19T09:43:30;100217.31;;;19.37;86.39
19112;BME280;9688;51.906;8.376;2023-09-19T09:46:20;100223.13;;;19.43;86.15
19112;BME280;9688;51.906;8.376;2023-09-19T09:49:31;100215.81;;;19.45;86.05
19112;BME280;9688;51.906;8.376;2023-09-19T09:52:19;100216.91;;;19.42;85.53
19112;BME280;9688;51.906;8.376;2023-09-19T09:55:08;100231.78;;;19.46;85.06
19112;BME280;9688;51.906;8.376;2023-09-19T09:58:16;100213.66;;;19.38;85.19
19112;BME280;9688;51.906;8.376;2023-09-19T10:01:04;100217.41;;;19.36;84.75
19112;BME280;9688;51.906;8.376;2023-09-19T10:03:58;100209.28;;;19.37;84.60
19112;BME280;9688;51.906;8.376;2023-09-19T10:06:45;100211.69;;;19.41;84.32
19112;BME280;9688;51.906;8.376;2023-09-19T10:09:46;100203.72;;;19.50;83.77
19112;BME280;9688;51.906;8.376;2023-09-19T10:12:33;100199.31;;;19.60;83.49
19112;BME280;9688;51.906;8.376;2023-09-19T10:15:26;100201.88;;;19.62;82.87
19112;BME280;9688;51.906;8.376;2023-09-19T10:18:20;100213.09;;;19.56;82.51
19112;BME280;9688;51.906;8.376;2023-09-19T10:21:09;100219.78;;;19.61;82.72
19112;BME280;9688;51.906;8.376;2023-09-19T10:23:58;100224.66;;;19.79;82.34
19112;BME280;9688;51.906;8.376;2023-09-19T10:26:51;100217.03;;;19.95;81.57
19112;BME280;9688;51.906;8.376;2023-09-19T10:29:39;100215.66;;;20.01;81.22
19112;BME280;9688;51.906;8.376;2023-09-19T10:32:28;100214.41;;;20.05;80.71
19112;BME280;9688;51.906;8.376;2023-09-19T10:35:18;100225.22;;;20.15;80.38
19112;BME280;9688;51.906;8.376;2023-09-19T10:38:06;100218.28;;;20.12;80.60
19112;BME280;9688;51.906;8.376;2023-09-19T10:45:14;100216.28;;;20.14;80.48
19112;BME280;9688;51.906;8.376;2023-09-19T10:48:05;100212.66;;;20.15;79.89
19112;BME280;9688;51.906;8.376;2023-09-19T10:50:58;100204.72;;;20.14;79.95
19112;BME280;9688;51.906;8.376;2023-09-19T10:53:51;100211.38;;;20.19;79.58
19112;BME280;9688;51.906;8.376;2023-09-19T10:56:38;100202.56;;;20.28;79.01
19112;BME280;9688;51.906;8.376;2023-09-19T10:59:29;100199.47;;;20.33;78.89
19112;BME280;9688;51.906;8.376;2023-09-19T11:02:20;100205.28;;;20.38;78.48
19112;BME280;9688;51.906;8.376;2023-09-19T11:05:12;100198.22;;;20.58;77.66
19112;BME280;9688;51.906;8.376;2023-09-19T11:08:00;100190.69;;;20.73;77.08
19112;BME280;9688;51.906;8.376;2023-09-19T11:10:49;100192.84;;;20.89;76.71
19112;BME280;9688;51.906;8.376;2023-09-19T11:13:35;100190.19;;;20.99;76.58
19112;BME280;9688;51.906;8.376;2023-09-19T11:16:22;100189.88;;;20.92;76.31
19112;BME280;9688;51.906;8.376;2023-09-19T11:19:12;100181.56;;;20.95;76.26
19112;BME280;9688;51.906;8.376;2023-09-19T11:22:01;100186.34;;;20.91;75.24
19112;BME280;9688;51.906;8.376;2023-09-19T11:24:48;100181.78;;;20.82;75.12
19112;BME280;9688;51.906;8.376;2023-09-19T11:34:46;100170.03;;;20.83;73.12
19112;BME280;9688;51.906;8.376;2023-09-19T11:38:05;100178.53;;;20.79;73.06
19112;BME280;9688;51.906;8.376;2023-09-19T11:44:36;100170.16;;;21.12;72.15
19112;BME280;9688;51.906;8.376;2023-09-19T11:47:23;100171.94;;;21.43;71.44
19112;BME280;9688;51.906;8.376;2023-09-19T11:50:11;100175.91;;;21.68;70.71
19112;BME280;9688;51.906;8.376;2023-09-19T11:52:58;100184.41;;;21.92;69.98
19112;BME280;9688;51.906;8.376;2023-09-19T11:55:44;100172.63;;;21.93;69.91
19112;BME280;9688;51.906;8.376;2023-09-19T11:58:32;100167.94;;;22.05;69.61
19112;BME280;9688;51.906;8.376;2023-09-19T12:01:22;100178.69;;;22.15;68.93
19112;BME280;9688;51.906;8.376;2023-09-19T12:04:11;100182.94;;;22.08;68.82
19112;BME280;9688;51.906;8.376;2023-09-19T12:07:00;100186.09;;;21.93;69.06
19112;BME280;9688;51.906;8.376;2023-09-19T12:09:48;100176.31;;;21.82;69.30
19112;BME280;9688;51.906;8.376;2023-09-19T12:12:34;100180.31;;;21.78;69.41
19112;BME280;9688;51.906;8.376;2023-09-19T12:15:23;100168.41;;;21.81;69.31
19112;BME280;9688;51.906;8.376;2023-09-19T12:18:26;100170.09;;;21.82;69.16
19112;BME280;9688;51.906;8.376;2023-09-19T12:21:24;100160.59;;;21.88;69.22
19112;BME280;9688;51.906;8.376;2023-09-19T12:24:13;100158.19;;;21.75;69.03
19112;BME280;9688;51.906;8.376;2023-09-19T12:27:04;100160.06;;;21.65;69.04
19112;BME280;9688;51.906;8.376;2023-09-19T12:29:51;100162.47;;;21.68;69.25
19112;BME280;9688;51.906;8.376;2023-09-19T12:32:44;100159.03;;;21.85;68.99
19112;BME280;9688;51.906;8.376;2023-09-19T12:35:32;100166.09;;;22.05;68.09
19112;BME280;9688;51.906;8.376;2023-09-19T12:38:24;100169.50;;;22.08;67.23
19112;BME280;9688;51.906;8.376;2023-09-19T12:41:14;100157.88;;;22.07;66.72
19112;BME280;9688;51.906;8.376;2023-09-19T12:43:59;100160.84;;;22.14;66.37
19112;BME280;9688;51.906;8.376;2023-09-19T12:46:47;100149.09;;;22.15;65.51
19112;BME280;9688;51.906;8.376;2023-09-19T12:49:34;100146.25;;;22.26;65.22
19112;BME280;9688;51.906;8.376;2023-09-19T12:52:20;100145.13;;;22.19;64.94
19112;BME280;9688;51.906;8.376;2023-09-19T12:55:20;100138.06;;;21.98;65.59
19112;BME280;9688;51.906;8.376;2023-09-19T12:58:14;100138.06;;;21.89;65.44
19112;BME280;9688;51.906;8.376;2023-09-19T13:01:14;100146.28;;;21.87;65.61
19112;BME280;9688;51.906;8.376;2023-09-19T13:04:11;100139.06;;;21.88;66.09
19112;BME280;9688;51.906;8.376;2023-09-19T13:06:59;100134.22;;;22.01;66.06
19112;BME280;9688;51.906;8.376;2023-09-19T13:10:03;100130.41;;;22.03;66.05
19112;BME280;9688;51.906;8.376;2023-09-19T13:12:51;100120.31;;;22.05;66.17
19112;BME280;9688;51.906;8.376;2023-09-19T13:15:53;100121.91;;;21.98;66.21
19112;BME280;9688;51.906;8.376;2023-09-19T13:18:47;100128.28;;;21.97;66.46
19112;BME280;9688;51.906;8.376;2023-09-19T13:21:35;100126.72;;;21.95;66.34
19112;BME280;9688;51.906;8.376;2023-09-19T13:24:27;100132.38;;;22.01;66.54
19112;BME280;9688;51.906;8.376;2023-09-19T13:27:14;100127.69;;;22.13;65.91
19112;BME280;9688;51.906;8.376;2023-09-19T13:30:01;100136.47;;;22.15;65.15
19112;BME280;9688;51.906;8.376;2023-09-19T13:32:51;100132.22;;;22.03;65.97
19112;BME280;9688;51.906;8.376;2023-09-19T13:35:39;100135.22;;;22.00;66.46
19112;BME280;9688;51.906;8.376;2023-09-19T13:38:25;100127.44;;;21.97;66.80
19112;BME280;9688;51.906;8.376;2023-09-19T13:41:12;100126.41;;;22.08;66.65
19112;BME280;9688;51.906;8.376;2023-09-19T13:43:58;100127.53;;;22.15;66.75
19112;BME280;9688;51.906;8.376;2023-09-19T13:46:44;100129.97;;;22.18;66.81
19112;BME280;9688;51.906;8.376;2023-09-19T13:49:32;100121.72;;;22.19;67.02
19112;BME280;9688;51.906;8.376;2023-09-19T13:52:19;100128.06;;;22.38;66.53
19112;BME280;9688;51.906;8.376;2023-09-19T13:55:07;100111.59;;;22.51;66.44
19112;BME280;9688;51.906;8.376;2023-09-19T13:57:52;100108.13;;;22.58;65.78
19112;BME280;9688;51.906;8.376;2023-09-19T14:00:40;100110.06;;;22.38;66.22
19112;BME280;9688;51.906;8.376;2023-09-19T14:03:27;100104.38;;;22.41;65.69
19112;BME280;9688;51.906;8.376;2023-09-19T14:06:16;100093.41;;;22.53;65.53
19112;BME280;9688;51.906;8.376;2023-09-19T14:09:02;100101.25;;;22.74;64.55
19112;BME280;9688;51.906;8.376;2023-09-19T14:11:48;100106.72;;;22.82;64.13
19112;BME280;9688;51.906;8.376;2023-09-19T14:14:37;100104.88;;;22.82;64.42
19112;BME280;9688;51.906;8.376;2023-09-19T14:17:23;100101.19;;;22.83;63.80
19112;BME280;9688;51.906;8.376;2023-09-19T14:20:13;100101.28;;;22.91;63.78
19112;BME280;9688;51.906;8.376;2023-09-19T14:23:01;100104.66;;;23.03;64.19
19112;BME280;9688;51.906;8.376;2023-09-19T14:25:47;100103.50;;;23.06;64.14
19112;BME280;9688;51.906;8.376;2023-09-19T14:28:34;100093.16;;;23.01;64.33
19112;BME280;9688;51.906;8.376;2023-09-19T14:31:21;100086.53;;;22.96;64.65
19112;BME280;9688;51.906;8.376;2023-09-19T14:34:11;100097.91;;;22.89;64.57
19112;BME280;9688;51.906;8.376;2023-09-19T14:36:59;100092.16;;;22.75;64.62
19112;BME280;9688;51.906;8.376;2023-09-19T14:39:46;100090.25;;;22.57;64.49
19112;BME280;9688;51.906;8.376;2023-09-19T14:42:32;100095.72;;;22.47;64.61
19112;BME280;9688;51.906;8.376;2023-09-19T14:45:20;100105.84;;;22.26;65.34
19112;BME280;9688;51.906;8.376;2023-09-19T14:48:07;100102.06;;;22.09;65.16
19112;BME280;9688;51.906;8.376;2023-09-19T14:50:53;100102.22;;;21.98;66.10
19112;BME280;9688;51.906;8.376;2023-09-19T14:53:40;100099.97;;;21.93;66.63
19112;BME280;9688;51.906;8.376;2023-09-19T14:56:30;100108.31;;;21.90;66.38
19112;BME280;9688;51.906;8.376;2023-09-19T14:59:16;100108.03;;;21.83;66.51
19112;BME280;9688;51.906;8.376;2023-09-19T15:02:03;100118.97;;;21.82;66.64
19112;BME280;9688;51.906;8.376;2023-09-19T15:04:49;100114.84;;;21.78;67.10